Station info - map view · info · telemetry · weather · raw · status · beacons · messages · bulletins · browse · moving · my account
Callsign, ship name or locator: Clear       
It is possible to search using wildcards (*?) after a prefix. Example: OH*
APRS station BV7RR-9 - show graphs
Map loading...
Comment: 這是村長的 HG-UV98 3947.4Km 7.8V 43.7C 1016.4hPa S17
Mic-E message: Off duty
Location: 22°36.89' N 120°19.12' E - locator PL02DO87FN - show map - static map
0.4 miles East bearing 106° from Kaohsiung, Kaohsiung, Taiwan [?]
2.8 miles West bearing 253° from Fengshan, Kao-hsiung Hsien, Taiwan, Taiwan
26.8 miles South bearing 165° from Tainan, Tainan, Taiwan, Taiwan
Last position: 2021-04-09 23:51:50 EDT (7d 5h2m ago)
2021-04-10 11:51:50 CST local time at Kaohsiung, Taiwan [?]
Altitude: 217 ft
Course: 166°
Speed: 12 MPH
Device: Unknown: Other Mic-E
Last path: BV7RR-9>RRSVX9 via WIDE1-1,WIDE2-2,qAR,BV7RR-7 (good)
Positions stored: 8800
Other SSIDs: BV7RR-12 BV7RR-3 BV7RR-6 BV7RR-7
Stations near current position of BV7RR-9 - show more
callsign distance last heard - EDT      callsign distance last heard - EDT
BV7RR-70.3 miles 166°2021-04-17 04:49:25 BV7RW-10.4 miles 267°2021-04-17 04:41:07
DW55620.5 miles 21°2021-04-17 04:50:05 BM7IFH1.2 miles 40°2021-04-15 10:31:14
BM4AIK-121.4 miles 324°2021-04-16 07:21:36 BM4AIK-31.4 miles 299°2021-04-17 04:50:21
BM7BGU-41.5 miles 327°2021-04-17 04:47:29 BM7BGU-21.5 miles 346°2021-04-17 04:51:39
BM4AIK-M1.5 miles 329°2021-04-16 07:23:22 BM4AIK-71.5 miles 329°2021-04-16 07:23:47
BM4AIK-81.5 miles 329°2021-04-16 07:22:57 BM4AIK-151.5 miles 329°2021-04-16 07:22:35
BM4AIK-R1.6 miles 337°2021-04-17 04:54:01 BM4AIK-41.8 miles 325°2021-04-17 03:54:37
BM4AIK1.8 miles 326°2021-04-17 04:50:00 BM4AIK-L1.8 miles 326°2021-04-17 04:50:00
BM7IFH-71.9 miles 346°2021-04-16 21:50:37 BM7IFH1.9 miles 346°2021-04-14 14:38:18
BM7IFH-101.9 miles 346°2021-04-14 13:53:58 BM4AIK-62.3 miles 327°2021-04-09 11:41:46
Stations which heard BV7RR-9 directly on radio –
callsign pkts first heard - EDT last heard longest (tx => rx) longest at - EDT
BV6YA-2 20 2021-04-09 18:45:18 2021-04-09 23:07:10 PL03EE > PL02CX 16.3 miles 214° 2021-04-09 22:48:35
BM7FKF-2 1 2021-04-09 18:19:30 2021-04-09 18:19:30 PL02EQ > PL02EQ 2.2 miles 97° 2021-04-09 18:19:30
BV5AB 1 2021-04-09 21:41:14 2021-04-09 21:41:14 PL04IA > PL04IE 12.6 miles 12° 2021-04-09 21:41:14
BV5AB-2 2 2021-04-09 21:40:35 2021-04-09 21:41:17 PL04IA > PL04JD 11.3 miles 26° 2021-04-09 21:40:35
BX2AEA-5 6 2021-04-09 19:08:47 2021-04-09 22:34:27 PL03FJ > PL03FJ 1.8 miles 179° 2021-04-09 19:10:53
BV6JR-2 5 2021-04-09 18:48:28 2021-04-09 22:57:00 PL03DC > PL03CB 6.5 miles 243° 2021-04-09 22:54:05
BM4ISC-15 2 2021-04-09 21:40:15 2021-04-09 21:41:19 PL04IA > PL04ID 9.1 miles 6° 2021-04-09 21:40:15
BV6JR-4 1 2021-04-09 22:55:13 2021-04-09 22:55:13 PL03DC > PL03CA 9.5 miles 233° 2021-04-09 22:55:13
BV7RR-7 9 2021-04-09 18:05:02 2021-04-09 23:51:28 PL02EP > PL02DO 1.6 miles 220° 2021-04-09 23:43:05
BV5D0-15 4 2021-04-09 21:29:12 2021-04-09 22:07:05 PL03IX > PL03HU 11.2 miles 212° 2021-04-09 21:29:12
BX6AM-4 10 2021-04-09 18:46:46 2021-04-09 18:57:17 PL03EF > PL03FA 15.7 miles 147° 2021-04-09 18:57:17
BX6AM-7 20 2021-04-09 18:27:16 2021-04-09 23:26:42 PL02EU > PL02FT 3.4 miles 126° 2021-04-09 23:12:04
BV5BH-11 7 2021-04-09 21:49:07 2021-04-09 21:53:34 PL03IV > PL03IV 2.3 miles 321° 2021-04-09 21:53:34
BM8CRA-11 1 2021-04-09 22:16:55 2021-04-09 22:16:55 PL03GO > PL03EQ 10.2 miles 296° 2021-04-09 22:16:55
BM6HFL-1 1 2021-04-09 19:25:33 2021-04-09 19:25:33 PL03GO > PL03GO 2.2 miles 122° 2021-04-09 19:25:33
BV7FO-12 2 2021-04-09 23:43:13 2021-04-09 23:44:16 PL02EP > PL02EM 7.1 miles 152° 2021-04-09 23:44:16
BV7RW-1 6 2021-04-09 23:46:26 2021-04-09 23:51:32 PL02DO > PL02DO 1.3 miles 245° 2021-04-09 23:46:26

Only position packets which were originated by the station are shown here. The range statistics show some extra long hops, because some digipeaters do not correctly add themselves to the digipeater path. Please check the raw packets.
About this site
This page shows real-time information collected from the Automatic Position Reporting System Internet network (APRS-IS). APRS is used by amateur (ham) radio operators to transmit real-time position information, weather data, telemetry and messages over the radio. A vehicle equipped with a GPS receiver, a VHF transmitter or HF transceiver and a small computer device called a tracker transmits it's location, speed and course in a small data packet, which is then received by a nearby iGate receiving site which forwards the packet on the Internet. Systems connected to the Internet can send information on the APRS-IS without a radio transmitter, or collect and display information transmitted anywhere in the world.
User guide · FAQ · Blog · Discussion group · Linking to aprs.fi · AIS sites · Service status · Database statistics · Advertising on aprs.fi · Technical details · API · Change log · Planned changes · Credits and thanks · Terms Of Service · iPhone/iPad APRS